createdAt,value
2018-01-23T00:02:06.239Z,98648.40
2018-01-23T00:04:35.608Z,98653.08
2018-01-23T00:07:05.364Z,98655.34
2018-01-23T00:09:35.231Z,98663.88
2018-01-23T00:12:05.017Z,98661.82
2018-01-23T00:14:34.778Z,98673.36
2018-01-23T00:17:04.854Z,98678.92
2018-01-23T00:19:35.034Z,98679.19
2018-01-23T00:22:04.584Z,98676.39
2018-01-23T00:24:34.325Z,98677.98
2018-01-23T00:27:07.130Z,98682.77
2018-01-23T00:29:36.445Z,98695.98
2018-01-23T00:32:09.910Z,98694.41
2018-01-23T00:34:39.266Z,98697.77
2018-01-23T00:37:09.174Z,98695.08
2018-01-23T00:39:38.769Z,98708.83
2018-01-23T00:42:08.154Z,98697.36
2018-01-23T00:44:38.111Z,98704.81
2018-01-23T00:47:07.508Z,98709.83
2018-01-23T00:49:37.090Z,98702.08
2018-01-23T00:52:06.724Z,98712.56
2018-01-23T00:54:36.130Z,98714.62
2018-01-23T00:57:05.678Z,98719.09
2018-01-23T00:59:35.638Z,98724.62
2018-01-23T01:02:04.953Z,98727.14
2018-01-23T01:04:34.494Z,98735.67
2018-01-23T01:07:04.198Z,98729.05
2018-01-23T01:09:33.599Z,98740.00
2018-01-23T01:12:02.969Z,98752.36
2018-01-23T01:14:32.513Z,98767.56
2018-01-23T01:17:02.310Z,98781.70
2018-01-23T01:19:31.658Z,98793.97
2018-01-23T01:22:01.266Z,98798.86
2018-01-23T01:24:30.825Z,98802.02
2018-01-23T01:27:02.465Z,98809.39
2018-01-23T01:29:32.713Z,98814.45
2018-01-23T01:32:02.970Z,98816.97
2018-01-23T01:34:33.293Z,98816.59
2018-01-23T01:37:03.578Z,98824.34
2018-01-23T01:39:32.914Z,98827.55
2018-01-23T01:42:03.086Z,98828.63
2018-01-23T01:44:33.366Z,98843.95
2018-01-23T01:47:03.186Z,98840.80
2018-01-23T01:49:33.101Z,98846.31
2018-01-23T01:52:03.544Z,98844.11
2018-01-23T01:54:32.874Z,98851.86
2018-01-23T01:57:02.514Z,98839.88
2018-01-23T01:59:32.889Z,98847.27
2018-01-23T02:04:33.426Z,98854.31
2018-01-23T02:07:04.130Z,98850.36
2018-01-23T02:09:33.468Z,98858.21
2018-01-23T02:12:02.884Z,98848.86
2018-01-23T02:14:32.503Z,98851.80
2018-01-23T02:17:01.934Z,98852.05
2018-01-23T02:19:31.725Z,98857.69
2018-01-23T02:22:01.590Z,98865.84
2018-01-23T02:24:31.450Z,98862.02
2018-01-23T02:27:01.130Z,98873.33
2018-01-23T02:29:30.583Z,98875.50
2018-01-23T02:31:59.910Z,98880.73
2018-01-23T02:34:30.003Z,98876.81
2018-01-23T02:36:59.776Z,98883.25
2018-01-23T02:39:32.299Z,98890.41
2018-01-23T02:42:01.632Z,98886.27
2018-01-23T02:44:31.311Z,98891.38
2018-01-23T02:47:00.976Z,98893.14
2018-01-23T02:49:30.606Z,98894.37
2018-01-23T02:51:59.929Z,98893.10
2018-01-23T02:54:29.961Z,98898.77
2018-01-23T02:56:59.322Z,98906.33
2018-01-23T02:59:30.306Z,98899.98
2018-01-23T03:01:59.642Z,98908.08
2018-01-23T03:04:30.390Z,98917.98
2018-01-23T03:07:00.326Z,98915.54
2018-01-23T03:09:30.165Z,98909.59
2018-01-23T03:12:00.189Z,98920.98
2018-01-23T03:14:30.742Z,98930.27
2018-01-23T03:17:00.113Z,98936.02
2018-01-23T03:19:30.269Z,98938.38
2018-01-23T03:21:59.841Z,98939.95
2018-01-23T03:24:30.390Z,98944.48
2018-01-23T03:26:59.685Z,98947.05
2018-01-23T03:29:31.021Z,98948.77
2018-01-23T03:32:00.425Z,98956.86
2018-01-23T03:34:29.979Z,98958.80
2018-01-23T03:36:59.985Z,98964.76
2018-01-23T03:39:30.649Z,98971.91
2018-01-23T03:41:59.938Z,98970.02
2018-01-23T03:44:30.579Z,98968.59
2018-01-23T03:46:59.897Z,98968.23
2018-01-23T03:49:30.357Z,98966.50
2018-01-23T03:51:59.948Z,98971.77
2018-01-23T03:54:30.546Z,98972.53
2018-01-23T03:56:59.839Z,98965.80
2018-01-23T03:59:31.169Z,98972.85
2018-01-23T04:02:00.940Z,98976.52
2018-01-23T04:04:30.426Z,98970.92
2018-01-23T04:07:00.030Z,98970.25
2018-01-23T04:09:30.270Z,98962.41
2018-01-23T04:11:59.673Z,98968.36
2018-01-23T04:14:30.670Z,98978.89
2018-01-23T04:17:00.046Z,98985.21
2018-01-23T04:19:30.872Z,98990.48
2018-01-23T04:22:00.525Z,98994.05
2018-01-23T04:24:30.159Z,99005.88
2018-01-23T04:26:59.450Z,99011.76
2018-01-23T04:29:31.145Z,99013.94
2018-01-23T04:32:00.438Z,99013.70
2018-01-23T04:34:30.269Z,99015.22
2018-01-23T04:36:59.702Z,99019.66
2018-01-23T04:39:30.603Z,99032.50
2018-01-23T04:41:59.914Z,99027.42
2018-01-23T04:44:30.117Z,99033.37
2018-01-23T04:46:59.477Z,99042.70
2018-01-23T04:49:30.185Z,99050.35
2018-01-23T04:51:59.875Z,99050.70
2018-01-23T04:54:31.089Z,99054.45
2018-01-23T04:57:00.385Z,99060.87
2018-01-23T04:59:31.010Z,99063.01
2018-01-23T05:02:00.370Z,99065.22
2018-01-23T05:04:30.362Z,99074.44
2018-01-23T05:06:59.950Z,99066.98
2018-01-23T05:09:30.510Z,99068.05
2018-01-23T05:11:59.802Z,99071.16
2018-01-23T05:14:33.972Z,99067.64
2018-01-23T05:17:07.580Z,99077.72
2018-01-23T05:19:37.275Z,99075.14
2018-01-23T05:22:06.555Z,99076.03
2018-01-23T05:24:36.672Z,99077.26
2018-01-23T05:27:06.297Z,99075.92
2018-01-23T05:29:35.726Z,99083.61
2018-01-23T05:32:06.680Z,99090.36
2018-01-23T05:34:38.291Z,99089.28
2018-01-23T05:37:10.010Z,99086.40
2018-01-23T05:39:40.913Z,99090.05
2018-01-23T05:42:14.514Z,99092.30
2018-01-23T05:44:44.840Z,99092.48
2018-01-23T05:47:16.213Z,99100.74
2018-01-23T05:49:45.962Z,99105.54
2018-01-23T05:52:15.581Z,99103.19
2018-01-23T05:54:45.262Z,99115.44
2018-01-23T05:57:14.613Z,99118.14
2018-01-23T05:59:44.262Z,99115.20
2018-01-23T06:02:13.953Z,99122.94
2018-01-23T06:04:43.390Z,99124.50
2018-01-23T06:07:12.716Z,99134.09
2018-01-23T06:09:42.503Z,99138.99
2018-01-23T06:12:12.411Z,99133.44
2018-01-23T06:14:42.123Z,99142.09
2018-01-23T06:17:11.779Z,99139.87
2018-01-23T06:19:41.418Z,99135.88
2018-01-23T06:22:11.594Z,99144.73
2018-01-23T06:24:41.393Z,99149.95
2018-01-23T06:27:11.570Z,99151.06
2018-01-23T06:29:42.154Z,99156.66
2018-01-23T06:32:29.168Z,99159.34
2018-01-23T06:35:11.551Z,99161.33
2018-01-23T06:37:52.345Z,99180.13
2018-01-23T06:40:23.741Z,99173.73
2018-01-23T06:42:53.953Z,99177.84
2018-01-23T06:45:28.486Z,99181.12
2018-01-23T06:48:03.232Z,99187.84
2018-01-23T06:50:34.572Z,99198.95
2018-01-23T06:53:04.062Z,99201.97
2018-01-23T06:55:34.896Z,99196.36
2018-01-23T06:58:13.187Z,99205.48
2018-01-23T07:00:56.926Z,99212.91
2018-01-23T07:03:27.131Z,99219.12
2018-01-23T07:05:59.297Z,99212.48
2018-01-23T07:08:30.143Z,99217.81
2018-01-23T07:10:59.582Z,99227.03
2018-01-23T07:13:43.801Z,99224.30
2018-01-23T07:16:14.490Z,99229.38
2018-01-23T07:18:44.501Z,99236.95
2018-01-23T07:21:15.561Z,99239.77
2018-01-23T07:23:45.022Z,99243.72
2018-01-23T07:26:15.215Z,99244.30
2018-01-23T07:28:45.555Z,99246.41
2018-01-23T07:31:15.556Z,99253.56
2018-01-23T07:33:45.148Z,99256.70
2018-01-23T07:36:14.521Z,99259.25
2018-01-23T07:38:43.950Z,99267.59
2018-01-23T07:41:13.633Z,99267.30
2018-01-23T07:43:42.938Z,99278.87
2018-01-23T07:46:12.326Z,99287.11
2018-01-23T07:48:41.651Z,99281.98
2018-01-23T07:51:11.010Z,99289.52
2018-01-23T07:53:40.304Z,99291.86
2018-01-23T07:56:09.609Z,99293.74
2018-01-23T07:58:38.917Z,99294.72
2018-01-23T08:01:08.195Z,99297.48
2018-01-23T08:03:37.874Z,99294.48
2018-01-23T08:06:07.167Z,99298.93
2018-01-23T08:08:36.739Z,99301.88
2018-01-23T08:11:06.299Z,99301.30
2018-01-23T08:13:35.798Z,99309.80
2018-01-23T08:16:05.162Z,99308.34
2018-01-23T08:18:34.809Z,99311.16
2018-01-23T08:21:04.378Z,99312.01
2018-01-23T08:23:33.829Z,99316.65
2018-01-23T08:26:03.829Z,99317.03
2018-01-23T08:28:33.233Z,99316.61
2018-01-23T08:31:03.845Z,99323.48
2018-01-23T08:33:33.671Z,99323.44
2018-01-23T08:36:03.298Z,99328.38
2018-01-23T08:38:32.922Z,99331.44
2018-01-23T08:41:02.483Z,99332.00
2018-01-23T08:43:32.563Z,99333.84
2018-01-23T08:46:02.026Z,99334.43
2018-01-23T08:48:35.049Z,99334.64
2018-01-23T08:51:04.522Z,99345.70
2018-01-23T08:53:36.454Z,99346.90
2018-01-23T08:56:06.090Z,99359.37
2018-01-23T08:58:35.680Z,99352.54
2018-01-23T09:01:07.870Z,99355.00
2018-01-23T09:03:38.366Z,99358.75
2018-01-23T09:06:08.475Z,99362.25
2018-01-23T09:08:43.023Z,99358.63
2018-01-23T09:11:12.618Z,99366.81
2018-01-23T09:13:41.978Z,99368.23
2018-01-23T09:16:11.329Z,99378.02
2018-01-23T09:18:40.793Z,99374.33
2018-01-23T09:21:10.057Z,99376.94
2018-01-23T09:23:39.486Z,99386.16
2018-01-23T09:26:09.094Z,99384.37
2018-01-23T09:28:38.490Z,99391.97
2018-01-23T09:31:07.849Z,99384.97
2018-01-23T09:33:37.638Z,99397.70
2018-01-23T09:36:07.146Z,99395.95
2018-01-23T09:38:36.957Z,99401.34
2018-01-23T09:41:06.430Z,99403.27
2018-01-23T09:43:36.269Z,99412.38
2018-01-23T09:46:05.591Z,99410.80
2018-01-23T09:48:35.804Z,99419.88
2018-01-23T09:51:06.594Z,99421.55
2018-01-23T09:53:36.573Z,99423.59
2018-01-23T09:56:06.373Z,99429.92
2018-01-23T09:58:35.781Z,99432.08
2018-01-23T10:01:06.430Z,99430.48
2018-01-23T10:03:50.890Z,99438.39
2018-01-23T10:06:20.256Z,99440.80
2018-01-23T10:08:50.054Z,99438.86
2018-01-23T10:11:19.726Z,99445.33
2018-01-23T10:14:10.046Z,99451.13
2018-01-23T10:16:39.689Z,99453.95
2018-01-23T10:19:11.385Z,99445.76
2018-01-23T10:21:40.744Z,99450.20
2018-01-23T10:24:10.681Z,99449.63
2018-01-23T10:26:48.579Z,99449.45
2018-01-23T10:29:25.178Z,99446.34
2018-01-23T10:32:08.242Z,99453.44
2018-01-23T10:34:38.659Z,99451.61
2018-01-23T10:37:07.990Z,99448.98
2018-01-23T10:39:40.785Z,99455.28
2018-01-23T10:42:10.693Z,99454.70
2018-01-23T10:44:40.097Z,99462.28
2018-01-23T10:47:09.421Z,99455.92
2018-01-23T10:49:39.791Z,99451.66
2018-01-23T10:52:09.683Z,99453.11
2018-01-23T10:54:39.302Z,99455.19
2018-01-23T10:57:32.825Z,99451.48
2018-01-23T11:00:14.373Z,99452.66
2018-01-23T11:03:03.638Z,99456.87
2018-01-23T11:05:56.895Z,99452.84
2018-01-23T11:08:30.605Z,99450.39
2018-01-23T11:11:09.253Z,99452.11
2018-01-23T11:13:52.874Z,99439.28
2018-01-23T11:16:32.520Z,99444.16
2018-01-23T11:19:07.122Z,99447.42
2018-01-23T11:21:37.898Z,99448.47
2018-01-23T11:24:08.230Z,99454.94
2018-01-23T11:26:43.248Z,99454.53
2018-01-23T11:29:13.243Z,99458.05
2018-01-23T11:31:46.227Z,99462.11
2018-01-23T11:34:16.472Z,99458.98
2018-01-23T11:36:47.135Z,99454.12
2018-01-23T11:39:17.111Z,99453.55
2018-01-23T11:41:57.034Z,99449.88
2018-01-23T11:44:30.133Z,99453.32
2018-01-23T11:47:00.378Z,99454.84
2018-01-23T11:49:30.888Z,99453.84
2018-01-23T11:52:00.552Z,99449.56
2018-01-23T11:54:30.694Z,99447.78
2018-01-23T11:57:00.434Z,99444.83
2018-01-23T11:59:32.606Z,99442.10
2018-01-23T12:02:02.089Z,99437.30
2018-01-23T12:04:32.525Z,99443.16
2018-01-23T12:07:02.820Z,99440.66
2018-01-23T12:09:33.476Z,99433.45
2018-01-23T12:12:02.819Z,99437.63
2018-01-23T12:14:32.714Z,99437.92
2018-01-23T12:17:02.354Z,99438.23
2018-01-23T12:19:33.493Z,99436.11
2018-01-23T12:22:05.761Z,99439.93
2018-01-23T12:24:38.554Z,99427.48
2018-01-23T12:27:08.998Z,99432.24
2018-01-23T12:29:38.622Z,99421.17
2018-01-23T12:32:08.748Z,99422.34
2018-01-23T12:34:38.585Z,99420.88
2018-01-23T12:37:17.378Z,99416.53
2018-01-23T12:39:47.635Z,99419.38
2018-01-23T12:42:17.898Z,99425.95
2018-01-23T12:44:51.145Z,99417.38
2018-01-23T12:47:20.873Z,99422.56
2018-01-23T12:49:50.469Z,99423.41
2018-01-23T12:52:20.058Z,99428.81
2018-01-23T12:54:51.585Z,99434.36
2018-01-23T12:57:22.644Z,99424.94
2018-01-23T12:59:56.015Z,99430.75
2018-01-23T13:02:27.901Z,99427.45
2018-01-23T13:05:01.013Z,99424.98
2018-01-23T13:07:36.915Z,99422.22
2018-01-23T13:10:09.143Z,99426.72
2018-01-23T13:12:40.429Z,99431.41
2018-01-23T13:15:10.473Z,99429.81
2018-01-23T13:17:50.533Z,99424.83
2018-01-23T13:20:22.042Z,99428.70
2018-01-23T13:22:51.880Z,99420.06
2018-01-23T13:25:21.282Z,99423.87
2018-01-23T13:27:51.194Z,99427.47
2018-01-23T13:30:23.696Z,99426.67
2018-01-23T13:32:56.122Z,99417.84
2018-01-23T13:35:34.826Z,99417.95
2018-01-23T13:38:04.898Z,99416.33
2018-01-23T13:40:39.342Z,99408.48
2018-01-23T13:43:08.973Z,99404.36
2018-01-23T13:45:39.454Z,99407.63
2018-01-23T13:48:08.991Z,99411.45
2018-01-23T13:50:38.555Z,99414.72
2018-01-23T13:53:08.985Z,99418.23
2018-01-23T13:55:41.097Z,99421.92
2018-01-23T13:58:11.918Z,99419.77
2018-01-23T14:00:41.653Z,99429.43
2018-01-23T14:03:12.289Z,99426.59
2018-01-23T14:05:45.774Z,99423.30
2018-01-23T14:08:16.121Z,99418.74
2018-01-23T14:10:48.479Z,99420.96
2018-01-23T14:13:21.090Z,99426.58
2018-01-23T14:15:55.087Z,99420.95
2018-01-23T14:18:24.950Z,99415.63
2018-01-23T14:20:55.631Z,99412.66
2018-01-23T14:23:30.009Z,99412.76
2018-01-23T14:26:01.815Z,99410.71
2018-01-23T14:28:31.323Z,99410.65
2018-01-23T14:31:16.382Z,99406.56
2018-01-23T14:33:45.742Z,99401.66
2018-01-23T14:36:15.198Z,99406.91
2018-01-23T14:38:44.953Z,99406.31
2018-01-23T14:41:14.375Z,99404.72
2018-01-23T14:43:43.806Z,99404.77
2018-01-23T14:46:13.629Z,99401.91
2018-01-23T14:48:43.138Z,99399.64
2018-01-23T14:51:12.658Z,99402.34
2018-01-23T14:53:42.286Z,99405.63
2018-01-23T14:56:11.933Z,99399.17
2018-01-23T14:58:41.355Z,99401.47
2018-01-23T15:01:11.626Z,99394.98
2018-01-23T15:03:41.082Z,99390.71
2018-01-23T15:06:11.285Z,99395.38
2018-01-23T15:08:41.301Z,99404.09
2018-01-23T15:11:10.777Z,99401.25
2018-01-23T15:13:40.102Z,99401.89
2018-01-23T15:16:10.058Z,99397.02
2018-01-23T15:18:39.978Z,99402.04
2018-01-23T15:21:09.434Z,99408.64
2018-01-23T15:23:39.953Z,99410.66
2018-01-23T15:26:09.824Z,99408.59
2018-01-23T15:28:39.647Z,99400.24
2018-01-23T15:31:09.424Z,99394.25
2018-01-23T15:33:43.213Z,99392.16
2018-01-23T15:36:12.655Z,99401.30
2018-01-23T15:38:42.645Z,99397.27
2018-01-23T15:41:11.951Z,99399.87
2018-01-23T15:43:41.635Z,99392.58
2018-01-23T15:46:11.825Z,99397.80
2018-01-23T15:48:41.989Z,99399.92
2018-01-23T15:51:11.941Z,99389.14
2018-01-23T15:53:41.678Z,99393.36
2018-01-23T15:56:11.097Z,99390.56
2018-01-23T15:58:40.962Z,99385.48
2018-01-23T16:01:11.078Z,99383.84
2018-01-23T16:03:41.113Z,99388.39
2018-01-23T16:06:10.890Z,99391.19
2018-01-23T16:08:41.640Z,99371.73
2018-01-23T16:11:12.463Z,99380.83
2018-01-23T16:13:42.053Z,99383.16
2018-01-23T16:16:13.891Z,99383.10
2018-01-23T16:18:45.847Z,99385.05
2018-01-23T16:21:18.828Z,99386.38
2018-01-23T16:23:50.736Z,99384.99
2018-01-23T16:26:22.342Z,99383.63
2018-01-23T16:28:54.446Z,99380.66
2018-01-23T16:31:24.738Z,99382.63
2018-01-23T16:33:54.550Z,99378.48
2018-01-23T16:36:24.329Z,99378.52
2018-01-23T16:38:54.194Z,99384.33
2018-01-23T16:41:23.657Z,99376.65
2018-01-23T16:43:53.720Z,99370.20
2018-01-23T16:46:23.020Z,99364.59
2018-01-23T16:48:53.188Z,99364.02
2018-01-23T16:51:22.610Z,99364.75
2018-01-23T16:53:52.977Z,99368.56
2018-01-23T16:56:22.785Z,99355.05
2018-01-23T16:58:52.817Z,99358.70
2018-01-23T17:01:22.170Z,99366.77
2018-01-23T17:03:52.753Z,99360.84
2018-01-23T17:06:23.362Z,99365.48
2018-01-23T17:08:52.941Z,99364.50
2018-01-23T17:11:22.362Z,99365.22
2018-01-23T17:13:52.721Z,99365.56
2018-01-23T17:16:23.023Z,99362.37
2018-01-23T17:18:52.480Z,99353.84
2018-01-23T17:21:27.566Z,99359.19
2018-01-23T17:23:57.705Z,99353.91
2018-01-23T17:26:28.969Z,99360.66
2018-01-23T17:28:58.735Z,99353.01
2018-01-23T17:31:28.729Z,99357.02
2018-01-23T17:34:00.009Z,99350.47
2018-01-23T17:36:30.459Z,99356.98
2018-01-23T17:39:00.380Z,99357.94
2018-01-23T17:41:30.904Z,99352.12
2018-01-23T17:44:11.352Z,99351.29
2018-01-23T17:46:41.511Z,99335.18
2018-01-23T17:49:11.192Z,99342.17
2018-01-23T17:51:40.550Z,99345.27
2018-01-23T17:54:11.714Z,99334.44
2018-01-23T17:56:43.099Z,99326.09
2018-01-23T17:59:13.050Z,99331.66
2018-01-23T18:01:43.071Z,99333.21
2018-01-23T18:04:12.875Z,99331.30
2018-01-23T18:06:43.126Z,99322.27
2018-01-23T18:09:13.163Z,99329.59
2018-01-23T18:11:42.662Z,99325.13
2018-01-23T18:14:12.177Z,99323.22
2018-01-23T18:16:42.058Z,99321.73
2018-01-23T18:19:11.469Z,99316.63
2018-01-23T18:21:41.095Z,99317.35
2018-01-23T18:24:10.849Z,99314.73
2018-01-23T18:26:40.658Z,99310.23
2018-01-23T18:29:10.083Z,99302.73
2018-01-23T18:31:40.521Z,99300.27
2018-01-23T18:34:10.234Z,99283.61
2018-01-23T18:36:40.231Z,99290.84
2018-01-23T18:39:11.057Z,99278.28
2018-01-23T18:41:43.698Z,99271.23
2018-01-23T18:44:14.451Z,99264.63
2018-01-23T18:46:45.068Z,99262.58
2018-01-23T18:49:15.325Z,99266.39
2018-01-23T18:51:48.890Z,99269.28
2018-01-23T18:54:19.415Z,99264.80
2018-01-23T18:56:53.967Z,99272.82
2018-01-23T18:59:24.907Z,99264.59
2018-01-23T19:02:02.555Z,99265.53
2018-01-23T19:04:32.854Z,99266.02
2018-01-23T19:07:02.704Z,99273.89
2018-01-23T19:09:33.112Z,99271.77
2018-01-23T19:12:03.551Z,99269.38
2018-01-23T19:14:33.704Z,99257.56
2018-01-23T19:17:04.124Z,99258.03
2018-01-23T19:19:34.197Z,99258.50
2018-01-23T19:22:03.778Z,99259.08
2018-01-23T19:24:33.503Z,99254.20
2018-01-23T19:27:03.307Z,99267.86
2018-01-23T19:31:54.493Z,99269.28
2018-01-23T19:34:24.547Z,99260.67
2018-01-23T19:36:55.212Z,99260.99
2018-01-23T19:39:25.095Z,99267.46
2018-01-23T19:41:55.618Z,99269.34
2018-01-23T19:44:25.886Z,99265.86
2018-01-23T19:46:56.062Z,99244.00
2018-01-23T19:49:26.874Z,99240.00
2018-01-23T19:51:57.024Z,99235.86
2018-01-23T19:54:27.274Z,99240.59
2018-01-23T19:56:57.298Z,99240.73
2018-01-23T19:59:30.941Z,99235.30
2018-01-23T20:02:00.529Z,99241.81
2018-01-23T20:04:32.389Z,99236.79
2018-01-23T20:07:03.690Z,99240.27
2018-01-23T20:09:33.734Z,99246.15
2018-01-23T20:12:03.838Z,99234.39
2018-01-23T20:14:34.318Z,99235.44
2018-01-23T20:17:03.851Z,99231.80
2018-01-23T20:19:35.870Z,99227.81
2018-01-23T20:22:05.906Z,99220.56
2018-01-23T20:24:43.838Z,99232.23
2018-01-23T20:27:13.787Z,99224.29
2018-01-23T20:29:51.358Z,99223.55
2018-01-23T20:32:21.990Z,99218.53
2018-01-23T20:34:52.730Z,99215.10
2018-01-23T20:37:26.859Z,99201.81
2018-01-23T20:40:01.900Z,99212.84
2018-01-23T20:42:32.356Z,99212.16
2018-01-23T20:45:03.019Z,99206.19
2018-01-23T20:47:33.661Z,99211.88
2018-01-23T20:50:03.962Z,99212.00
2018-01-23T20:52:34.368Z,99211.61
2018-01-23T20:55:04.437Z,99219.76
2018-01-23T20:57:34.303Z,99224.32
2018-01-23T21:00:04.490Z,99218.41
2018-01-23T21:02:36.207Z,99201.36
2018-01-23T21:05:13.347Z,99200.11
2018-01-23T21:07:48.676Z,99195.46
2018-01-23T21:10:18.253Z,99202.85
2018-01-23T21:12:48.553Z,99204.95
2018-01-23T21:15:20.266Z,99204.64
2018-01-23T21:17:49.642Z,99215.06
2018-01-23T21:20:20.282Z,99209.88
2018-01-23T21:22:50.049Z,99217.69
2018-01-23T21:25:19.533Z,99220.08
2018-01-23T21:27:49.155Z,99214.56
2018-01-23T21:30:19.034Z,99206.16
2018-01-23T21:32:48.583Z,99188.64
2018-01-23T21:35:18.313Z,99188.88
2018-01-23T21:37:47.719Z,99190.09
2018-01-23T21:40:17.085Z,99203.89
2018-01-23T21:42:47.858Z,99211.52
2018-01-23T21:45:17.906Z,99213.34
2018-01-23T21:47:48.294Z,99228.79
2018-01-23T21:50:17.944Z,99228.49
2018-01-23T21:52:47.485Z,99215.08
2018-01-23T21:55:17.078Z,99201.89
2018-01-23T21:57:46.817Z,99205.84
2018-01-23T22:00:16.220Z,99220.02
2018-01-23T22:02:45.842Z,99214.55
2018-01-23T22:05:15.997Z,99227.79
2018-01-23T22:07:45.337Z,99228.38
2018-01-23T22:10:15.060Z,99225.81
2018-01-23T22:12:44.705Z,99217.33
2018-01-23T22:15:14.385Z,99216.03
2018-01-23T22:17:44.217Z,99222.68
2018-01-23T22:20:14.344Z,99224.05
2018-01-23T22:22:43.859Z,99216.91
2018-01-23T22:25:13.438Z,99213.98
2018-01-23T22:27:43.172Z,99198.78
2018-01-23T22:30:12.654Z,99193.48
2018-01-23T22:32:42.175Z,99184.03
2018-01-23T22:35:12.400Z,99184.16
2018-01-23T22:37:42.201Z,99171.23
2018-01-23T22:40:12.101Z,99162.61
2018-01-23T22:42:42.020Z,99158.41
2018-01-23T22:45:11.554Z,99175.67
2018-01-23T22:47:41.202Z,99186.97
2018-01-23T22:50:10.999Z,99200.84
2018-01-23T22:52:40.587Z,99190.20
2018-01-23T22:55:10.098Z,99183.61
2018-01-23T22:57:39.870Z,99180.22
2018-01-23T23:00:09.339Z,99181.95
2018-01-23T23:02:38.765Z,99197.48
2018-01-23T23:05:09.027Z,99192.36
2018-01-23T23:07:38.406Z,99197.01
2018-01-23T23:10:07.794Z,99195.70
2018-01-23T23:12:38.009Z,99191.81
2018-01-23T23:15:07.355Z,99182.17
2018-01-23T23:17:36.892Z,99181.70
2018-01-23T23:20:06.506Z,99193.20
2018-01-23T23:22:36.753Z,99188.10
2018-01-23T23:25:06.154Z,99189.37
2018-01-23T23:27:35.846Z,99183.48
2018-01-23T23:30:05.331Z,99177.36
2018-01-23T23:32:34.755Z,99173.45
2018-01-23T23:35:04.424Z,99170.43
2018-01-23T23:37:33.906Z,99172.16
2018-01-23T23:40:03.473Z,99167.70
2018-01-23T23:42:33.157Z,99165.00
2018-01-23T23:45:02.767Z,99152.94
2018-01-23T23:47:32.229Z,99162.44
2018-01-23T23:50:02.137Z,99161.59
2018-01-23T23:52:31.557Z,99163.63
2018-01-23T23:55:01.013Z,99169.33
2018-01-23T23:57:30.744Z,99164.56
